LS Christine — ZDHW4 — position and weather

sailwx.info

Track history (hours):
 
Tides and Currents Weather Stations Pressure Air Temp Water Temp Dewpoint Dewpoint Depression Visibility Wind Speed Wind Dir Waves Ship Positions

LS Christine

Last reported at 2017-Oct-19 02:05 UTC. Time now 2017-Oct-19 05:48 UTC.
Position N 36°06' W 005°09'.

Length 125 m; draft 7.4 m.

Type: Ship. MMSI: 236379000.

Date/timePositionNaut miles runAvg speedWind from/ knotsBaromVisibWave heightAir tempDewpointWater temp
2017-Oct-19 02:05N 36°06' W 005°09'212.6
2017-Oct-19 01:57N 36°05' W 005°11'612.4
2017-Oct-19 01:30N 36°04' W 005°18'5 9.5
2017-Oct-19 01:00N 36°07' W 005°23'4 8.0
2017-Oct-19 00:30N 36°11' W 005°24'0 0.1
2017-Oct-19 00:00N 36°11' W 005°24'0 0.0
2017-Oct-17 02:04N 36°11' W 005°24'0 0.0
2017-Oct-17 02:00N 36°11' W 005°24'1 1.6
2017-Oct-17 01:30N 36°10' W 005°23'0 0.1
2017-Oct-17 00:57N 36°10' W 005°23'0 0.0
2017-Oct-16 21:21N 36°10' W 005°23'0 0.0
2017-Oct-16 13:42N 36°10' W 005°23'0 0.0
2017-Oct-16 04:21N 36°10' W 005°23'0 0.0
2017-Oct-14 23:58N 36°10' W 005°23'5 8.4
2017-Oct-14 23:24N 36°05' W 005°23'511.8
2017-Oct-14 23:00N 36°01' W 005°23'611.4
2017-Oct-14 22:30N 35°57' W 005°29'711.7
2017-Oct-14 21:54N 35°55' W 005°37'410.7
2017-Oct-14 21:30N 35°55' W 005°42'5 9.9
2017-Oct-14 20:58N 35°55' W 005°49'610.8
2017-Oct-14 20:27N 35°55' W 005°56'810.5
2017-Oct-14 19:39N 35°54' W 006°06'20 0.5
2017-Oct-13 05:39N 35°58' W 005°42'312.9
2017-Oct-13 05:27N 35°58' W 005°39'612.7
2017-Oct-13 05:00N 35°59' W 005°32'611.9
2017-Oct-13 04:31N 36°02' W 005°25'612.1
2017-Oct-13 04:00N 36°08' W 005°24'3 6.2
2017-Oct-13 03:30N 36°11' W 005°24'0 0.0
2017-Oct-13 02:58N 36°11' W 005°24'1 0.0
2017-Oct-12 05:38N 36°10' W 005°23'0 0.1
2017-Oct-12 05:22N 36°10' W 005°23'0 0.1
2017-Oct-12 03:58N 36°10' W 005°23'0 0.0
2017-Oct-12 01:04N 36°10' W 005°23'0 0.1
2017-Oct-12 00:49N 36°10' W 005°23'0 0.0
2017-Oct-11 21:31N 36°10' W 005°23'0 0.0
2017-Oct-11 21:19N 36°10' W 005°23'0 0.0
2017-Oct-11 20:58N 36°10' W 005°23'0 0.0
2017-Oct-11 20:23N 36°10' W 005°23'0 0.0
2017-Oct-10 19:40N 36°10' W 005°23'  
Track history (hours):
 
Tides and Currents Weather Stations Pressure Air Temp Water Temp Dewpoint Dewpoint Depression Visibility Wind Speed Wind Dir Waves Ship Positions

LS Christine

Last reported at 2017-Oct-19 02:05 UTC. Time now 2017-Oct-19 05:48 UTC.
Position N 36°06' W 005°09'.

Length 125 m; draft 7.4 m.

Type: Ship. MMSI: 236379000.

Date/timePositionNaut miles runAvg speedWind from/ knotsBaromVisibWave heightAir tempDewpointWater temp
2017-Oct-19 02:05N 36°06' W 005°09'212.6
2017-Oct-19 01:57N 36°05' W 005°11'612.4
2017-Oct-19 01:30N 36°04' W 005°18'5 9.5
2017-Oct-19 01:00N 36°07' W 005°23'4 8.0
2017-Oct-19 00:30N 36°11' W 005°24'0 0.1
2017-Oct-19 00:00N 36°11' W 005°24'0 0.0
2017-Oct-17 02:04N 36°11' W 005°24'0 0.0
2017-Oct-17 02:00N 36°11' W 005°24'1 1.6
2017-Oct-17 01:30N 36°10' W 005°23'0 0.1
2017-Oct-17 00:57N 36°10' W 005°23'0 0.0
2017-Oct-16 21:21N 36°10' W 005°23'0 0.0
2017-Oct-16 13:42N 36°10' W 005°23'0 0.0
2017-Oct-16 04:21N 36°10' W 005°23'0 0.0
2017-Oct-14 23:58N 36°10' W 005°23'5 8.4
2017-Oct-14 23:24N 36°05' W 005°23'511.8
2017-Oct-14 23:00N 36°01' W 005°23'611.4
2017-Oct-14 22:30N 35°57' W 005°29'711.7
2017-Oct-14 21:54N 35°55' W 005°37'410.7
2017-Oct-14 21:30N 35°55' W 005°42'5 9.9
2017-Oct-14 20:58N 35°55' W 005°49'610.8
2017-Oct-14 20:27N 35°55' W 005°56'810.5
2017-Oct-14 19:39N 35°54' W 006°06'20 0.5
2017-Oct-13 05:39N 35°58' W 005°42'312.9
2017-Oct-13 05:27N 35°58' W 005°39'612.7
2017-Oct-13 05:00N 35°59' W 005°32'611.9
2017-Oct-13 04:31N 36°02' W 005°25'612.1
2017-Oct-13 04:00N 36°08' W 005°24'3 6.2
2017-Oct-13 03:30N 36°11' W 005°24'0 0.0
2017-Oct-13 02:58N 36°11' W 005°24'1 0.0
2017-Oct-12 05:38N 36°10' W 005°23'0 0.1
2017-Oct-12 05:22N 36°10' W 005°23'0 0.1
2017-Oct-12 03:58N 36°10' W 005°23'0 0.0
2017-Oct-12 01:04N 36°10' W 005°23'0 0.1
2017-Oct-12 00:49N 36°10' W 005°23'0 0.0
2017-Oct-11 21:31N 36°10' W 005°23'0 0.0
2017-Oct-11 21:19N 36°10' W 005°23'0 0.0
2017-Oct-11 20:58N 36°10' W 005°23'0 0.0
2017-Oct-11 20:23N 36°10' W 005°23'0 0.0
2017-Oct-10 19:40N 36°10' W 005°23'  

Dump ship's entire track history